Jarratt, VA (23870)

6:00 PM EST on March 03, 2015 (GMT -0500)
purdy | Change Station
CLOSE
Current Station
Personal Weather Station
Location: Purdy, VA
Elevation: 200 ft
Nearby Weather Stations

Elev 200 ft 36.79 °N, 77.57 °W | Updated 4 seconds ago

Overcast
Overcast
34.8 °F
Feels Like 35 °F
N
0.0
Wind Variable Wind from SW
Gusts 0.0 mph

Today
High -- | Low -- °F
--% Chance of Precip.
Yesterday
High -- | Low -- °F
Precip. -- in
6:38 AM 6:05 PM
Waxing Gibbous, 97% visible
Pressure 30.22 in
Visibility 7.0 miles
Clouds Overcast 1600 ft
Windchill 35 °F
Dew Point 33 °F
Humidity 92%
Rainfall 0.00 in
Snow Depth Not available.
UV 0 out of 12
Pollen 5.00 out of 12
Air Quality Not available.
Flu Activity Not available.
METAR KEMV 032235Z AUTO 23003KT 7SM OVC016 01/00 A3022 RMK AO2

More Conditions Fewer Conditions

Pressure 30.22 in
Visibility 7.0 miles
Clouds Overcast 1600 ft
Windchill 35 °F
Dew Point 33 °F
Humidity 92%
Rainfall 0.00 in
Snow Depth Not available.
UV 0 out of 12
Pollen 5.00 out of 12
Air Quality Not available.
Flu Activity Not available.
METAR KEMV 032235Z AUTO 23003KT 7SM OVC016 01/00 A3022 RMK AO2

More Conditions Fewer Conditions

10-Day Weather Forecast

Almanac

Astronomy

Mar. 03, 2015 Rise Set
Actual Time
Civil Twilight
Nautical Twilight
Astronomical Twilight
Moon
Length of Visible Light
Length of Day
Tomorrow will be .
, % of the Moon is Illuminated

Today's Extremes

State Highs State Lows

Community

WunderPhotos

Upload Photos

1,802,299 photos uploaded!

WunderBlogs® & News

Nearby

Air Quality

  Air Quality AQ Index Pollutant
Not available.

Snow Depth

Station Depth Elevation

Earthquake Activity

City Distance Mag. Time & Date
Minimum magnitude displayed is 2.5.

Coastal Water Temperatures

Place Temperature

Nearby Weather Stations